createdAt,value
2023-01-08T00:00:09.337Z,70.00
2023-01-08T00:03:40.216Z,78.25
2023-01-08T00:06:47.943Z,100.00
2023-01-08T00:09:56.818Z,71.67
2023-01-08T00:13:00.832Z,62.33
2023-01-08T00:16:07.268Z,70.33
2023-01-08T00:19:12.768Z,68.67
2023-01-08T00:22:20.857Z,65.25
2023-01-08T00:25:27.008Z,70.00
2023-01-08T00:28:31.319Z,81.50
2023-01-08T00:31:34.885Z,81.25
2023-01-08T00:34:38.823Z,89.00
2023-01-08T00:37:42.356Z,87.75
2023-01-08T00:40:49.739Z,77.25
2023-01-08T00:43:54.758Z,82.25
2023-01-08T00:46:58.663Z,77.25
2023-01-08T00:50:02.142Z,80.50
2023-01-08T00:53:09.708Z,87.50
2023-01-08T00:56:15.046Z,93.25
2023-01-08T00:59:19.712Z,81.75
2023-01-08T01:02:23.250Z,82.25
2023-01-08T01:05:27.320Z,78.75
2023-01-08T01:08:30.819Z,79.50
2023-01-08T01:11:36.261Z,71.00
2023-01-08T01:14:40.177Z,79.25
2023-01-08T01:17:46.200Z,80.25
2023-01-08T01:20:52.561Z,81.50
2023-01-08T01:23:58.393Z,83.25
2023-01-08T01:27:03.837Z,74.00
2023-01-08T01:30:09.423Z,76.75
2023-01-08T01:33:13.480Z,69.25
2023-01-08T01:36:19.664Z,81.75
2023-01-08T01:39:23.619Z,82.50
2023-01-08T01:42:42.192Z,69.00
2023-01-08T01:45:46.251Z,77.50
2023-01-08T01:48:55.037Z,84.75
2023-01-08T01:52:07.289Z,75.00
2023-01-08T01:55:13.824Z,80.75
2023-01-08T01:58:24.757Z,82.75
2023-01-08T02:01:31.561Z,73.50
2023-01-08T02:04:35.536Z,84.00
2023-01-08T02:07:46.284Z,84.50
2023-01-08T02:10:57.468Z,81.50
2023-01-08T02:14:14.354Z,86.50
2023-01-08T02:17:25.541Z,82.00
2023-01-08T02:20:33.541Z,69.00
2023-01-08T02:23:47.639Z,76.25
2023-01-08T02:26:56.973Z,71.00
2023-01-08T02:30:01.715Z,72.33
2023-01-08T02:33:10.492Z,70.00
2023-01-08T02:36:32.168Z,73.50
2023-01-08T02:40:09.779Z,68.67
2023-01-08T02:43:24.281Z,66.33
2023-01-08T02:46:33.941Z,66.00
2023-01-08T02:49:44.311Z,67.00
2023-01-08T02:52:59.043Z,65.67
2023-01-08T02:56:08.066Z,64.00
2023-01-08T02:59:18.658Z,48.00
2023-01-08T03:02:25.936Z,57.00
2023-01-08T03:05:31.348Z,58.67
2023-01-08T03:08:42.700Z,52.67
2023-01-08T03:11:51.952Z,55.67
2023-01-08T03:15:05.444Z,57.67
2023-01-08T03:18:15.073Z,56.00
2023-01-08T03:21:22.186Z,58.00
2023-01-08T03:24:30.920Z,51.67
2023-01-08T03:27:42.540Z,53.00
2023-01-08T03:30:51.154Z,55.67
2023-01-08T03:33:55.576Z,51.00
2023-01-08T03:37:01.809Z,49.00
2023-01-08T03:40:09.780Z,48.33
2023-01-08T03:43:14.193Z,43.00
2023-01-08T03:46:25.603Z,48.00
2023-01-08T03:49:32.368Z,49.00
2023-01-08T03:52:38.051Z,46.00
2023-01-08T03:55:41.878Z,48.33
2023-01-08T03:58:46.309Z,48.00
2023-01-08T04:01:54.237Z,52.67
2023-01-08T04:04:59.443Z,50.33
2023-01-08T04:08:03.325Z,53.67
2023-01-08T04:11:08.934Z,52.00
2023-01-08T04:14:12.789Z,48.33
2023-01-08T04:17:17.711Z,49.00
2023-01-08T04:20:22.037Z,47.33
2023-01-08T04:23:26.793Z,45.00
2023-01-08T04:26:30.663Z,46.67
2023-01-08T04:29:34.737Z,48.00
2023-01-08T04:32:41.880Z,45.00
2023-01-08T04:35:47.934Z,43.00
2023-01-08T04:38:51.851Z,46.00
2023-01-08T04:41:58.406Z,46.00
2023-01-08T04:45:07.626Z,43.67
2023-01-08T04:48:14.184Z,45.67
2023-01-08T04:51:21.020Z,46.33
2023-01-08T04:54:25.559Z,48.00
2023-01-08T04:57:29.623Z,46.00
2023-01-08T05:00:33.936Z,44.33
2023-01-08T05:03:39.669Z,42.00
2023-01-08T05:06:43.407Z,40.67
2023-01-08T05:09:47.654Z,33.00
2023-01-08T05:12:51.235Z,43.00
2023-01-08T05:15:55.720Z,35.67
2023-01-08T05:19:00.808Z,43.00
2023-01-08T05:22:04.944Z,46.67
2023-01-08T05:25:09.702Z,49.00
2023-01-08T05:28:18.559Z,55.00
2023-01-08T05:31:22.631Z,60.67
2023-01-08T05:34:29.313Z,49.00
2023-01-08T05:37:35.492Z,46.67
2023-01-08T05:40:39.737Z,42.67
2023-01-08T05:43:44.881Z,42.00
2023-01-08T05:46:49.005Z,40.67
2023-01-08T05:49:54.267Z,46.00
2023-01-08T05:52:59.777Z,44.33
2023-01-08T05:56:08.889Z,42.00
2023-01-08T05:59:13.485Z,39.00
2023-01-08T06:02:16.941Z,46.00
2023-01-08T06:05:22.237Z,39.67
2023-01-08T06:08:26.142Z,39.00
2023-01-08T06:11:30.123Z,49.00
2023-01-08T06:14:34.762Z,45.00
2023-01-08T06:17:38.767Z,46.67
2023-01-08T06:20:43.648Z,47.33
2023-01-08T06:23:48.205Z,36.67
2023-01-08T06:26:52.651Z,42.00
2023-01-08T06:29:57.982Z,42.67
2023-01-08T06:33:05.667Z,46.67
2023-01-08T06:36:12.077Z,46.00
2023-01-08T06:39:15.850Z,55.00
2023-01-08T06:42:20.051Z,63.00
2023-01-08T06:45:23.701Z,52.00
2023-01-08T06:48:29.216Z,51.33
2023-01-08T06:51:34.462Z,42.00
2023-01-08T06:54:41.065Z,40.00
2023-01-08T06:57:44.732Z,40.00
2023-01-08T07:00:50.609Z,52.00
2023-01-08T07:03:58.879Z,32.00
2023-01-08T07:07:04.490Z,45.33
2023-01-08T07:10:08.816Z,47.33
2023-01-08T07:13:13.867Z,21.00
2023-01-08T07:16:18.071Z,46.67
2023-01-08T07:19:27.280Z,40.00
2023-01-08T07:22:32.191Z,43.67
2023-01-08T07:25:38.759Z,37.00
2023-01-08T07:28:47.707Z,46.67
2023-01-08T07:31:54.141Z,47.67
2023-01-08T07:34:59.739Z,61.00
2023-01-08T07:38:11.377Z,58.67
2023-01-08T07:41:16.209Z,86.75
2023-01-08T07:44:19.990Z,100.25
2023-01-08T07:47:24.052Z,115.50
2023-01-08T07:50:29.074Z,117.50
2023-01-08T07:53:37.763Z,108.75
2023-01-08T07:56:44.136Z,104.50
2023-01-08T07:59:49.536Z,105.75
2023-01-08T08:02:58.108Z,156.50
2023-01-08T08:06:03.982Z,149.50
2023-01-08T08:09:11.137Z,132.00
2023-01-08T08:12:15.762Z,108.50
2023-01-08T08:15:20.361Z,101.50
2023-01-08T08:18:24.187Z,102.75
2023-01-08T08:21:29.757Z,115.00
2023-01-08T08:24:47.172Z,116.50
2023-01-08T08:27:52.930Z,126.00
2023-01-08T08:31:00.088Z,134.50
2023-01-08T08:34:05.073Z,132.00
2023-01-08T08:37:10.258Z,127.75
2023-01-08T08:40:21.991Z,131.25
2023-01-08T08:43:28.056Z,122.25
2023-01-08T08:46:32.264Z,122.75
2023-01-08T08:49:37.936Z,173.75
2023-01-08T08:52:44.980Z,176.25
2023-01-08T08:55:53.279Z,193.00
2023-01-08T08:59:00.239Z,211.00
2023-01-08T09:02:04.460Z,174.75
2023-01-08T09:05:10.174Z,166.75
2023-01-08T09:08:15.130Z,142.50
2023-01-08T09:11:21.659Z,99.50
2023-01-08T09:14:26.725Z,100.00
2023-01-08T09:17:32.840Z,80.00
2023-01-08T09:20:37.750Z,90.75
2023-01-08T09:23:42.188Z,89.00
2023-01-08T09:26:47.972Z,105.75
2023-01-08T09:29:53.588Z,76.00
2023-01-08T09:33:02.762Z,86.00
2023-01-08T09:36:14.744Z,72.33
2023-01-08T09:39:18.322Z,74.33
2023-01-08T09:42:29.387Z,67.33
2023-01-08T09:45:40.596Z,79.00
2023-01-08T09:48:49.504Z,63.33
2023-01-08T09:51:56.938Z,66.67
2023-01-08T09:55:02.926Z,71.67
2023-01-08T09:58:23.892Z,82.25
2023-01-08T10:01:38.691Z,63.00
2023-01-08T10:04:45.693Z,82.00
2023-01-08T10:07:51.652Z,60.00
2023-01-08T10:10:56.340Z,64.33
2023-01-08T10:14:01.818Z,57.00
2023-01-08T10:17:14.654Z,48.00
2023-01-08T10:20:23.783Z,47.67
2023-01-08T10:23:27.857Z,42.25
2023-01-08T10:26:41.258Z,42.75
2023-01-08T10:29:47.631Z,39.00
2023-01-08T10:32:55.244Z,38.00
2023-01-08T10:36:03.561Z,36.75
2023-01-08T10:39:23.013Z,27.00
2023-01-08T10:42:27.325Z,33.75
2023-01-08T10:45:35.141Z,34.00
2023-01-08T10:48:40.901Z,33.75
2023-01-08T10:51:51.196Z,33.50
2023-01-08T10:54:55.402Z,34.50
2023-01-08T10:58:01.835Z,31.00
2023-01-08T11:01:20.629Z,31.25
2023-01-08T11:04:34.043Z,29.75
2023-01-08T11:07:45.366Z,31.50
2023-01-08T11:10:57.727Z,32.75
2023-01-08T11:14:09.038Z,32.00
2023-01-08T11:17:17.168Z,30.00
2023-01-08T11:20:25.615Z,28.00
2023-01-08T11:23:32.038Z,34.50
2023-01-08T11:26:41.756Z,32.50
2023-01-08T11:29:50.525Z,29.00
2023-01-08T11:33:09.117Z,26.75
2023-01-08T11:36:23.496Z,41.00
2023-01-08T11:39:28.341Z,35.25
2023-01-08T11:42:56.488Z,29.00
2023-01-08T11:46:23.469Z,21.25
2023-01-08T11:49:53.676Z,23.50
2023-01-08T11:53:11.381Z,30.75
2023-01-08T11:56:29.099Z,27.50
2023-01-08T11:59:49.844Z,31.50
2023-01-08T12:02:56.833Z,27.50
2023-01-08T12:06:16.723Z,31.50
2023-01-08T12:09:37.389Z,27.00
2023-01-08T12:12:53.520Z,31.00
2023-01-08T12:16:13.507Z,29.75
2023-01-08T12:19:25.422Z,34.50
2023-01-08T12:22:40.339Z,30.75
2023-01-08T12:26:10.656Z,33.25
2023-01-08T12:29:34.085Z,40.50
2023-01-08T12:32:43.995Z,39.75
2023-01-08T12:35:53.701Z,37.25
2023-01-08T12:39:15.127Z,37.25
2023-01-08T12:42:29.329Z,36.00
2023-01-08T12:45:45.447Z,29.50
2023-01-08T12:48:52.292Z,35.25
2023-01-08T12:52:06.213Z,30.25
2023-01-08T12:55:28.968Z,27.75
2023-01-08T12:58:40.814Z,30.75
2023-01-08T13:01:52.673Z,45.25
2023-01-08T13:04:58.133Z,36.75
2023-01-08T13:08:06.096Z,34.00
2023-01-08T13:11:13.025Z,35.25
2023-01-08T13:14:23.374Z,35.50
2023-01-08T13:17:29.033Z,36.50
2023-01-08T13:20:35.039Z,41.50
2023-01-08T13:23:42.196Z,45.25
2023-01-08T13:26:54.027Z,39.75
2023-01-08T13:30:02.880Z,41.75
2023-01-08T13:33:29.717Z,39.25
2023-01-08T13:36:35.821Z,39.75
2023-01-08T13:39:43.068Z,42.00
2023-01-08T13:42:50.802Z,43.25
2023-01-08T13:46:13.606Z,39.50
2023-01-08T13:49:28.624Z,38.25
2023-01-08T13:52:45.925Z,39.25
2023-01-08T13:56:00.616Z,41.50
2023-01-08T13:59:08.187Z,42.00
2023-01-08T14:02:32.648Z,42.00
2023-01-08T14:05:40.464Z,48.75
2023-01-08T14:08:52.712Z,48.25
2023-01-08T14:12:00.447Z,45.00
2023-01-08T14:15:47.459Z,48.75
2023-01-08T14:19:01.838Z,66.67
2023-01-08T14:22:12.656Z,56.33
2023-01-08T14:25:22.419Z,60.00
2023-01-08T14:28:27.201Z,51.25
2023-01-08T14:31:35.703Z,50.75
2023-01-08T14:35:04.855Z,50.00
2023-01-08T14:38:15.169Z,57.00
2023-01-08T14:41:54.372Z,59.33
2023-01-08T14:45:06.253Z,58.00
2023-01-08T14:48:19.580Z,67.67
2023-01-08T14:51:29.170Z,65.00
2023-01-08T14:54:47.711Z,15.33
2023-01-08T14:57:58.557Z,70.00
2023-01-08T15:01:12.313Z,65.33
2023-01-08T15:04:23.444Z,62.67
2023-01-08T15:07:28.776Z,70.00
2023-01-08T15:10:37.281Z,78.00
2023-01-08T15:13:43.268Z,72.33
2023-01-08T15:16:47.976Z,83.00
2023-01-08T15:20:01.531Z,85.67
2023-01-08T15:23:14.060Z,65.33
2023-01-08T15:26:19.738Z,62.00
2023-01-08T15:29:33.293Z,67.33
2023-01-08T15:32:40.037Z,61.33
2023-01-08T15:35:49.888Z,109.25
2023-01-08T15:38:53.638Z,82.33
2023-01-08T15:42:20.349Z,51.33
2023-01-08T15:45:28.895Z,57.00
2023-01-08T15:48:33.940Z,46.00
2023-01-08T15:51:46.604Z,54.67
2023-01-08T15:54:52.746Z,44.50
2023-01-08T15:58:01.297Z,46.00
2023-01-08T16:01:05.634Z,8.00
2023-01-08T16:04:11.117Z,91.50
2023-01-08T16:07:17.946Z,86.67
2023-01-08T16:10:21.990Z,50.67
2023-01-08T16:13:27.200Z,92.50
2023-01-08T16:16:33.271Z,107.75
2023-01-08T16:19:38.513Z,140.75
2023-01-08T16:22:47.204Z,83.67
2023-01-08T16:25:53.882Z,92.25
2023-01-08T16:28:57.852Z,69.67
2023-01-08T16:32:02.719Z,47.50
2023-01-08T16:35:09.205Z,47.67
2023-01-08T16:38:21.155Z,71.33
2023-01-08T16:41:38.909Z,117.00
2023-01-08T16:44:45.028Z,115.75
2023-01-08T16:47:52.614Z,90.25
2023-01-08T16:50:57.312Z,91.75
2023-01-08T16:54:06.369Z,120.75
2023-01-08T16:57:10.642Z,104.25
2023-01-08T17:00:18.021Z,84.67
2023-01-08T17:03:26.704Z,120.00
2023-01-08T17:06:32.207Z,159.25
2023-01-08T17:09:38.206Z,76.67
2023-01-08T17:12:41.708Z,95.25
2023-01-08T17:15:46.987Z,88.75
2023-01-08T17:18:57.144Z,62.33
2023-01-08T17:22:01.536Z,83.75
2023-01-08T17:25:14.447Z,75.33
2023-01-08T17:28:23.028Z,70.00
2023-01-08T17:31:27.805Z,81.67
2023-01-08T17:34:34.401Z,68.00
2023-01-08T17:37:39.495Z,94.50
2023-01-08T17:40:45.527Z,75.33
2023-01-08T17:43:51.402Z,99.00
2023-01-08T17:46:58.837Z,103.25
2023-01-08T17:50:05.769Z,60.33
2023-01-08T17:53:16.864Z,76.00
2023-01-08T17:56:22.326Z,78.33
2023-01-08T17:59:32.557Z,118.00
2023-01-08T18:02:37.289Z,97.25
2023-01-08T18:05:42.252Z,78.67
2023-01-08T18:08:46.337Z,87.25
2023-01-08T18:11:54.377Z,103.00
2023-01-08T18:15:00.695Z,102.50
2023-01-08T18:18:05.577Z,94.75
2023-01-08T18:21:12.778Z,73.33
2023-01-08T18:24:18.391Z,106.00
2023-01-08T18:27:28.251Z,102.25
2023-01-08T18:30:33.521Z,131.25
2023-01-08T18:33:41.346Z,132.75
2023-01-08T18:36:45.250Z,115.50
2023-01-08T18:39:49.284Z,112.50
2023-01-08T18:42:57.612Z,113.75
2023-01-08T18:46:06.973Z,114.75
2023-01-08T18:49:14.681Z,31.75
2023-01-08T18:52:18.093Z,117.25
2023-01-08T18:55:23.080Z,96.75
2023-01-08T18:58:31.912Z,91.75
2023-01-08T19:01:44.612Z,116.00
2023-01-08T19:04:53.224Z,74.50
2023-01-08T19:07:58.479Z,89.50
2023-01-08T19:11:12.623Z,75.75
2023-01-08T19:14:22.319Z,86.50
2023-01-08T19:17:27.631Z,96.50
2023-01-08T19:20:36.252Z,103.00
2023-01-08T19:23:43.623Z,79.25
2023-01-08T19:26:50.739Z,93.75
2023-01-08T19:29:55.957Z,78.25
2023-01-08T19:33:00.904Z,111.25
2023-01-08T19:36:17.984Z,76.33
2023-01-08T19:39:23.808Z,74.00
2023-01-08T19:42:46.731Z,104.75
2023-01-08T19:45:54.031Z,91.00
2023-01-08T19:48:58.670Z,75.25
2023-01-08T19:52:02.652Z,94.75
2023-01-08T19:55:09.145Z,84.50
2023-01-08T19:58:17.726Z,74.25
2023-01-08T20:01:25.143Z,77.75
2023-01-08T20:04:36.827Z,80.25
2023-01-08T20:07:42.273Z,88.75
2023-01-08T20:10:46.813Z,112.75
2023-01-08T20:13:52.293Z,90.00
2023-01-08T20:16:58.416Z,55.75
2023-01-08T20:20:03.077Z,69.33
2023-01-08T20:23:10.665Z,79.00
2023-01-08T20:26:19.961Z,126.50
2023-01-08T20:29:24.335Z,154.25
2023-01-08T20:32:30.087Z,109.00
2023-01-08T20:35:39.542Z,82.75
2023-01-08T20:38:46.440Z,86.50
2023-01-08T20:42:04.225Z,80.25
2023-01-08T20:45:11.403Z,86.00
2023-01-08T20:48:18.373Z,80.25
2023-01-08T20:51:24.422Z,82.00
2023-01-08T20:54:34.757Z,77.25
2023-01-08T20:57:42.065Z,75.00
2023-01-08T21:00:49.662Z,73.33
2023-01-08T21:04:04.577Z,116.00
2023-01-08T21:07:21.859Z,67.00
2023-01-08T21:10:30.355Z,73.00
2023-01-08T21:13:44.936Z,101.00
2023-01-08T21:16:54.832Z,87.25
2023-01-08T21:20:09.855Z,73.67
2023-01-08T21:23:14.606Z,82.75
2023-01-08T21:26:20.245Z,79.75
2023-01-08T21:29:27.367Z,72.00
2023-01-08T21:32:38.101Z,76.25
2023-01-08T21:35:50.718Z,71.67
2023-01-08T21:39:12.910Z,79.00
2023-01-08T21:42:34.798Z,64.25
2023-01-08T21:45:40.568Z,92.25
2023-01-08T21:48:44.573Z,0.00
2023-01-08T21:52:09.213Z,79.00
2023-01-08T21:55:19.453Z,93.00
2023-01-08T21:58:24.284Z,88.25
2023-01-08T22:01:34.229Z,76.50
2023-01-08T22:04:40.105Z,86.00
2023-01-08T22:07:47.987Z,92.25
2023-01-08T22:10:53.296Z,82.25
2023-01-08T22:13:58.876Z,97.75
2023-01-08T22:17:09.321Z,63.75
2023-01-08T22:20:14.698Z,96.00
2023-01-08T22:23:23.577Z,88.50
2023-01-08T22:26:28.363Z,88.50
2023-01-08T22:29:35.555Z,81.50
2023-01-08T22:32:39.482Z,86.75
2023-01-08T22:35:51.056Z,67.33
2023-01-08T22:39:02.816Z,76.50
2023-01-08T22:42:09.492Z,67.67
2023-01-08T22:45:14.357Z,0.00
2023-01-08T22:48:20.407Z,69.67
2023-01-08T22:51:27.452Z,73.33
2023-01-08T22:54:33.105Z,62.00
2023-01-08T22:57:36.669Z,66.00
2023-01-08T23:00:43.246Z,55.00
2023-01-08T23:03:51.475Z,57.00
2023-01-08T23:06:56.224Z,66.33
2023-01-08T23:10:01.760Z,54.67
2023-01-08T23:13:10.099Z,57.67
2023-01-08T23:16:17.060Z,65.33
2023-01-08T23:19:28.782Z,55.67
2023-01-08T23:22:35.709Z,64.33
2023-01-08T23:25:46.265Z,64.00
2023-01-08T23:28:53.826Z,64.00
2023-01-08T23:32:01.145Z,66.00
2023-01-08T23:35:07.826Z,52.00
2023-01-08T23:38:13.821Z,58.00
2023-01-08T23:41:19.907Z,49.00
2023-01-08T23:44:25.282Z,60.00
2023-01-08T23:47:30.426Z,49.00
2023-01-08T23:50:35.518Z,43.67
2023-01-08T23:53:43.789Z,42.00
2023-01-08T23:56:51.035Z,51.00
2023-01-08T23:59:56.065Z,48.00
